createdAt,value
2022-12-19T00:01:20.439Z,22.80
2022-12-19T00:03:50.690Z,21.75
2022-12-19T00:06:22.347Z,20.57
2022-12-19T00:08:51.488Z,29.93
2022-12-19T00:11:21.877Z,24.57
2022-12-19T00:13:49.940Z,33.47
2022-12-19T00:16:23.303Z,23.87
2022-12-19T00:18:55.355Z,27.50
2022-12-19T00:21:26.304Z,35.23
2022-12-19T00:23:54.928Z,25.57
2022-12-19T00:26:28.277Z,28.37
2022-12-19T00:28:58.653Z,19.57
2022-12-19T00:31:28.904Z,21.33
2022-12-19T00:33:57.389Z,33.47
2022-12-19T00:36:28.467Z,16.07
2022-12-19T00:38:59.137Z,22.90
2022-12-19T00:41:32.835Z,26.07
2022-12-19T00:44:03.886Z,30.10
2022-12-19T00:46:33.907Z,17.37
2022-12-19T00:49:02.339Z,25.33
2022-12-19T00:51:34.303Z,19.80
2022-12-19T00:54:03.127Z,24.77
2022-12-19T00:56:37.212Z,23.47
2022-12-19T00:59:09.193Z,30.45
2022-12-19T01:01:40.373Z,33.93
2022-12-19T01:04:28.320Z,20.97
2022-12-19T01:06:57.906Z,32.57
2022-12-19T01:09:35.908Z,31.70
2022-12-19T01:12:24.846Z,34.07
2022-12-19T01:15:02.898Z,31.73
2022-12-19T01:17:37.752Z,16.53
2022-12-19T01:20:15.061Z,28.80
2022-12-19T01:22:43.354Z,22.10
2022-12-19T01:25:14.648Z,24.20
2022-12-19T01:27:42.576Z,27.90
2022-12-19T01:30:11.445Z,31.30
2022-12-19T01:32:40.191Z,33.40
2022-12-19T01:35:09.935Z,35.33
2022-12-19T01:37:48.948Z,29.40
2022-12-19T01:40:18.175Z,20.43
2022-12-19T01:42:46.148Z,22.07
2022-12-19T01:45:17.093Z,33.97
2022-12-19T01:48:11.880Z,18.00
2022-12-19T01:50:58.825Z,20.20
2022-12-19T01:54:01.490Z,25.73
2022-12-19T01:56:35.968Z,23.33
2022-12-19T01:59:10.191Z,26.00
2022-12-19T02:01:51.496Z,15.37
2022-12-19T02:04:26.342Z,23.27
2022-12-19T02:06:59.762Z,32.95
2022-12-19T02:09:34.891Z,23.57
2022-12-19T02:15:02.489Z,27.50
2022-12-19T02:17:42.163Z,25.73
2022-12-19T02:20:35.024Z,39.80
2022-12-19T02:23:38.520Z,26.03
2022-12-19T02:26:25.944Z,24.00
2022-12-19T02:29:18.753Z,32.97
2022-12-19T02:32:15.991Z,26.97
2022-12-19T02:34:58.454Z,36.73
2022-12-19T02:37:28.800Z,28.63
2022-12-19T02:40:06.693Z,37.70
2022-12-19T02:42:39.476Z,29.00
2022-12-19T02:45:10.216Z,26.17
2022-12-19T02:47:39.342Z,24.93
2022-12-19T02:50:08.606Z,38.40
2022-12-19T02:52:36.594Z,32.03
2022-12-19T02:55:09.420Z,36.67
2022-12-19T02:57:55.639Z,42.80
2022-12-19T03:00:27.522Z,35.23
2022-12-19T03:03:22.837Z,29.17
2022-12-19T03:06:05.843Z,28.60
2022-12-19T03:09:11.850Z,39.53
2022-12-19T03:11:41.996Z,35.17
2022-12-19T03:14:14.168Z,31.67
2022-12-19T03:16:42.553Z,19.33
2022-12-19T03:19:13.303Z,31.57
2022-12-19T03:21:46.009Z,43.77
2022-12-19T03:24:14.914Z,28.90
2022-12-19T03:26:46.495Z,24.30
2022-12-19T03:29:25.158Z,31.63
2022-12-19T03:31:54.287Z,40.73
2022-12-19T03:34:26.611Z,42.50
2022-12-19T03:36:59.837Z,15.17
2022-12-19T03:39:28.701Z,18.20
2022-12-19T03:42:17.674Z,26.35
2022-12-19T03:44:45.516Z,36.90
2022-12-19T03:47:33.592Z,32.00
2022-12-19T03:50:01.484Z,40.22
2022-12-19T03:52:40.269Z,31.50
2022-12-19T03:55:39.068Z,26.43
2022-12-19T03:58:12.377Z,22.37
2022-12-19T04:00:47.310Z,29.80
2022-12-19T04:03:18.376Z,26.10
2022-12-19T04:05:48.486Z,36.88
2022-12-19T04:08:17.179Z,29.40
2022-12-19T04:10:51.134Z,29.37
2022-12-19T04:13:35.415Z,33.95
2022-12-19T04:16:28.384Z,19.33
2022-12-19T04:19:05.497Z,34.40
2022-12-19T04:21:43.882Z,16.10
2022-12-19T04:24:18.827Z,21.45
2022-12-19T04:26:49.424Z,27.85
2022-12-19T04:29:18.424Z,19.63
2022-12-19T04:31:46.854Z,26.90
2022-12-19T04:34:18.719Z,39.17
2022-12-19T04:36:47.103Z,31.85
2022-12-19T04:39:15.073Z,18.85
2022-12-19T04:41:42.860Z,29.90
2022-12-19T04:44:10.667Z,23.45
2022-12-19T04:46:38.739Z,27.55
2022-12-19T04:49:06.589Z,39.10
2022-12-19T04:51:34.419Z,29.42
2022-12-19T04:54:02.201Z,32.20
2022-12-19T04:56:30.069Z,32.17
2022-12-19T04:58:59.296Z,34.63
2022-12-19T05:01:27.587Z,31.27
2022-12-19T05:03:59.915Z,25.70
2022-12-19T05:06:30.758Z,25.35
2022-12-19T05:08:58.637Z,26.65
2022-12-19T05:11:26.448Z,24.23
2022-12-19T05:13:54.298Z,24.55
2022-12-19T05:16:22.387Z,20.05
2022-12-19T05:18:50.376Z,20.45
2022-12-19T05:21:18.216Z,23.88
2022-12-19T05:23:46.133Z,22.20
2022-12-19T05:26:13.927Z,15.57
2022-12-19T05:28:41.799Z,16.00
2022-12-19T05:31:11.106Z,20.23
2022-12-19T05:33:40.554Z,21.08
2022-12-19T05:36:09.767Z,17.48
2022-12-19T05:38:37.510Z,17.50
2022-12-19T05:41:14.073Z,18.92
2022-12-19T05:43:42.529Z,12.60
2022-12-19T05:46:10.746Z,15.77
2022-12-19T05:48:39.178Z,18.48
2022-12-19T05:51:07.422Z,22.80
2022-12-19T05:53:39.344Z,13.02
2022-12-19T05:56:18.482Z,13.82
2022-12-19T05:58:47.516Z,15.98
2022-12-19T06:01:26.515Z,16.15
2022-12-19T06:03:55.551Z,22.98
2022-12-19T06:06:26.114Z,16.95
2022-12-19T06:08:58.455Z,15.38
2022-12-19T06:11:27.270Z,16.85
2022-12-19T06:13:55.124Z,13.57
2022-12-19T06:16:23.720Z,16.95
2022-12-19T06:18:51.858Z,15.73
2022-12-19T06:21:22.416Z,14.60
2022-12-19T06:23:50.565Z,19.65
2022-12-19T06:26:21.008Z,13.02
2022-12-19T06:28:50.543Z,18.15
2022-12-19T06:31:19.895Z,15.90
2022-12-19T06:33:48.313Z,10.13
2022-12-19T06:36:23.863Z,15.32
2022-12-19T06:38:52.116Z,14.18
2022-12-19T06:41:39.316Z,16.75
2022-12-19T06:44:10.451Z,16.17
2022-12-19T06:46:40.198Z,10.15
2022-12-19T06:49:09.168Z,9.38
2022-12-19T06:51:37.362Z,13.43
2022-12-19T06:54:05.408Z,14.40
2022-12-19T06:56:37.654Z,16.77
2022-12-19T06:59:06.543Z,9.32
2022-12-19T07:01:40.503Z,18.15
2022-12-19T07:04:11.532Z,11.75
2022-12-19T07:06:40.209Z,15.80
2022-12-19T07:09:10.288Z,14.05
2022-12-19T07:11:39.380Z,13.38
2022-12-19T07:14:07.297Z,14.65
2022-12-19T07:16:38.435Z,12.57
2022-12-19T07:19:08.797Z,17.70
2022-12-19T07:21:37.377Z,16.75
2022-12-19T07:24:06.069Z,15.82
2022-12-19T07:26:34.044Z,16.25
2022-12-19T07:29:01.956Z,16.02
2022-12-19T07:31:29.872Z,11.45
2022-12-19T07:33:58.024Z,14.98
2022-12-19T07:36:26.108Z,13.05
2022-12-19T07:38:54.043Z,13.52
2022-12-19T07:41:21.908Z,13.50
2022-12-19T07:43:49.771Z,14.35
2022-12-19T07:46:17.576Z,13.20
2022-12-19T07:48:45.464Z,17.42
2022-12-19T07:51:13.373Z,15.10
2022-12-19T07:53:41.207Z,15.13
2022-12-19T07:56:09.255Z,14.07
2022-12-19T07:58:37.760Z,8.98
2022-12-19T08:01:06.465Z,17.92
2022-12-19T08:03:36.020Z,17.50
2022-12-19T08:06:06.106Z,13.40
2022-12-19T08:08:34.525Z,16.60
2022-12-19T08:11:19.585Z,14.88
2022-12-19T08:13:49.918Z,13.60
2022-12-19T08:16:17.908Z,12.98
2022-12-19T08:18:46.175Z,15.50
2022-12-19T08:21:14.556Z,16.73
2022-12-19T08:23:42.566Z,19.05
2022-12-19T08:26:13.688Z,15.98
2022-12-19T08:28:41.958Z,15.05
2022-12-19T08:31:15.560Z,12.48
2022-12-19T08:33:43.982Z,17.15
2022-12-19T08:36:14.718Z,13.40
2022-12-19T08:38:42.767Z,14.35
2022-12-19T08:41:11.620Z,14.13
2022-12-19T08:43:39.541Z,12.10
2022-12-19T08:46:08.121Z,12.45
2022-12-19T08:48:36.652Z,12.27
2022-12-19T08:51:07.139Z,11.20
2022-12-19T08:53:37.094Z,13.10
2022-12-19T08:56:19.257Z,10.20
2022-12-19T08:58:47.404Z,11.07
2022-12-19T09:01:19.209Z,10.15
2022-12-19T09:05:07.764Z,12.40
2022-12-19T09:06:36.579Z,10.77
2022-12-19T09:09:05.870Z,12.57
2022-12-19T09:11:35.916Z,10.98
2022-12-19T09:14:16.376Z,9.55
2022-12-19T09:16:49.581Z,14.98
2022-12-19T09:19:18.157Z,9.30
2022-12-19T09:21:46.151Z,9.85
2022-12-19T09:24:14.568Z,12.80
2022-12-19T09:26:43.835Z,12.98
2022-12-19T09:29:19.610Z,8.77
2022-12-19T09:31:55.244Z,11.50
2022-12-19T09:34:38.177Z,8.57
2022-12-19T09:37:08.385Z,11.65
2022-12-19T09:39:36.664Z,9.27
2022-12-19T09:42:39.432Z,9.65
2022-12-19T09:45:31.665Z,10.93
2022-12-19T09:48:02.482Z,8.38
2022-12-19T09:50:46.671Z,11.13
2022-12-19T09:53:31.470Z,11.48
2022-12-19T09:56:00.696Z,9.00
2022-12-19T09:58:54.182Z,9.30
2022-12-19T10:01:39.811Z,10.10
2022-12-19T10:04:13.885Z,9.63
2022-12-19T10:07:21.337Z,10.60
2022-12-19T10:12:12.726Z,11.23
2022-12-19T10:12:49.921Z,13.25
2022-12-19T10:15:41.229Z,8.73
2022-12-19T10:18:29.562Z,9.98
2022-12-19T10:21:36.985Z,8.10
2022-12-19T10:24:35.388Z,12.48
2022-12-19T10:27:37.298Z,11.10
2022-12-19T10:30:23.897Z,10.70
2022-12-19T10:32:57.817Z,8.52
2022-12-19T10:35:32.433Z,10.93
2022-12-19T10:40:47.737Z,8.95
2022-12-19T10:43:34.692Z,10.00
2022-12-19T10:46:38.046Z,8.80
2022-12-19T10:49:25.265Z,9.82
2022-12-19T10:51:56.259Z,10.43
2022-12-19T10:54:39.698Z,9.10
2022-12-19T10:57:23.307Z,10.98
2022-12-19T11:00:05.209Z,10.60
2022-12-19T11:02:39.484Z,15.88
2022-12-19T11:05:23.622Z,10.05
2022-12-19T11:08:25.230Z,10.70
2022-12-19T11:12:22.785Z,11.25
2022-12-19T11:19:13.530Z,7.68
2022-12-19T11:25:38.200Z,9.45
2022-12-19T11:29:17.342Z,13.48
2022-12-19T11:29:37.372Z,10.85
2022-12-19T11:29:54.950Z,9.98
2022-12-19T11:30:36.679Z,9.77
2022-12-19T11:34:35.674Z,9.20
2022-12-19T11:37:28.916Z,12.10
2022-12-19T11:40:10.209Z,10.13
2022-12-19T11:43:41.788Z,7.25
2022-12-19T11:45:56.934Z,7.82
2022-12-19T11:48:50.460Z,8.77
2022-12-19T11:51:25.401Z,8.80
2022-12-19T11:56:39.881Z,9.43
2022-12-19T11:59:19.232Z,8.27
2022-12-19T12:01:53.515Z,6.05
2022-12-19T12:04:30.720Z,10.15
2022-12-19T12:07:01.633Z,6.82
2022-12-19T12:12:10.484Z,8.35
2022-12-19T12:16:27.052Z,9.82
2022-12-19T12:26:11.543Z,9.73
2022-12-19T12:31:07.544Z,9.18
2022-12-19T12:31:15.525Z,8.15
2022-12-19T12:31:45.128Z,10.52
2022-12-19T12:32:06.163Z,9.43
2022-12-19T12:35:29.285Z,8.68
2022-12-19T12:35:40.507Z,7.75
2022-12-19T12:41:07.051Z,9.23
2022-12-19T12:44:09.241Z,8.10
2022-12-19T12:46:44.599Z,9.43
2022-12-19T12:49:24.829Z,9.55
2022-12-19T12:51:53.280Z,10.07
2022-12-19T12:54:23.737Z,8.70
2022-12-19T12:56:51.679Z,8.23
2022-12-19T12:59:24.299Z,7.32
2022-12-19T13:02:01.717Z,8.00
2022-12-19T13:04:37.074Z,6.00
2022-12-19T13:07:15.539Z,6.78
2022-12-19T13:09:44.075Z,6.80
2022-12-19T13:12:47.085Z,7.07
2022-12-19T13:15:32.059Z,6.50
2022-12-19T13:18:33.205Z,6.00
2022-12-19T13:21:03.806Z,8.50
2022-12-19T13:23:47.688Z,7.85
2022-12-19T13:26:44.779Z,8.18
2022-12-19T13:29:29.421Z,6.18
2022-12-19T13:32:12.599Z,6.65
2022-12-19T13:34:44.042Z,6.97
2022-12-19T13:39:54.016Z,7.20
2022-12-19T13:40:33.103Z,6.32
2022-12-19T13:43:29.604Z,3.85
2022-12-19T13:46:20.254Z,6.85
2022-12-19T13:48:52.307Z,8.45
2022-12-19T13:51:21.717Z,8.10
2022-12-19T13:53:59.526Z,6.30
2022-12-19T13:56:31.817Z,6.85
2022-12-19T13:59:04.760Z,6.18
2022-12-19T14:01:35.846Z,6.22
2022-12-19T14:04:13.437Z,7.60
2022-12-19T14:06:46.352Z,6.47
2022-12-19T14:11:27.428Z,5.47
2022-12-19T14:13:55.314Z,6.47
2022-12-19T14:15:33.959Z,5.85
2022-12-19T14:18:41.811Z,6.88
2022-12-19T14:22:07.802Z,6.65
2022-12-19T14:24:18.299Z,6.05
2022-12-19T14:28:23.522Z,7.20
2022-12-19T14:30:27.276Z,5.40
2022-12-19T14:33:40.606Z,5.72
2022-12-19T14:36:10.320Z,6.45
2022-12-19T14:39:19.822Z,7.85
2022-12-19T14:41:46.340Z,10.55
2022-12-19T14:51:25.249Z,8.82
2022-12-19T14:54:06.106Z,7.97
2022-12-19T14:54:08.899Z,7.80
2022-12-19T14:54:46.701Z,7.50
2022-12-19T14:56:58.309Z,7.90
2022-12-19T14:59:17.316Z,6.40
2022-12-19T15:01:52.987Z,10.13
2022-12-19T15:04:52.103Z,6.40
2022-12-19T15:07:23.710Z,6.15
2022-12-19T15:11:07.285Z,8.55
2022-12-19T15:14:47.900Z,5.78
2022-12-19T15:16:04.467Z,7.47
2022-12-19T15:18:42.690Z,7.55
2022-12-19T15:21:14.725Z,7.15
2022-12-19T15:23:45.360Z,9.10
2022-12-19T15:26:20.445Z,7.22
2022-12-19T15:28:53.481Z,8.68
2022-12-19T15:31:38.982Z,7.15
2022-12-19T15:34:35.776Z,7.43
2022-12-19T15:37:06.243Z,6.85
2022-12-19T15:39:34.201Z,7.20
2022-12-19T15:42:02.583Z,7.85
2022-12-19T15:44:36.768Z,7.65
2022-12-19T15:47:14.882Z,9.15
2022-12-19T15:49:42.892Z,8.63
2022-12-19T15:52:21.315Z,7.72
2022-12-19T15:54:51.797Z,6.68
2022-12-19T15:57:32.469Z,7.00
2022-12-19T16:00:04.951Z,7.47
2022-12-19T16:05:24.309Z,7.25
2022-12-19T16:07:52.489Z,8.13
2022-12-19T16:10:20.540Z,5.68
2022-12-19T16:12:57.785Z,6.18
2022-12-19T16:15:32.010Z,8.75
2022-12-19T16:18:02.939Z,6.75
2022-12-19T16:20:37.920Z,5.75
2022-12-19T16:25:40.397Z,5.35
2022-12-19T16:28:18.439Z,6.82
2022-12-19T16:30:47.369Z,11.48
2022-12-19T16:33:21.656Z,8.98
2022-12-19T16:36:07.591Z,8.63
2022-12-19T16:38:36.688Z,8.43
2022-12-19T16:41:04.638Z,9.90
2022-12-19T16:43:42.693Z,8.93
2022-12-19T16:46:18.167Z,7.90
2022-12-19T16:48:47.532Z,9.15
2022-12-19T16:51:21.039Z,8.95
2022-12-19T16:53:50.652Z,13.02
2022-12-19T16:56:27.274Z,9.82
2022-12-19T16:58:56.430Z,10.73
2022-12-19T17:01:24.346Z,12.63
2022-12-19T17:03:55.040Z,9.80
2022-12-19T17:06:23.715Z,12.73
2022-12-19T17:08:52.500Z,12.65
2022-12-19T17:11:25.271Z,10.20
2022-12-19T17:14:01.762Z,12.02
2022-12-19T17:16:31.095Z,11.50
2022-12-19T17:19:00.432Z,11.32
2022-12-19T17:21:28.517Z,11.85
2022-12-19T17:23:56.433Z,13.85
2022-12-19T17:26:24.517Z,11.65
2022-12-19T17:28:52.312Z,11.90
2022-12-19T17:31:27.609Z,11.13
2022-12-19T17:33:57.839Z,12.90
2022-12-19T17:36:36.941Z,11.88
2022-12-19T17:39:27.054Z,13.02
2022-12-19T17:42:09.943Z,9.88
2022-12-19T17:44:38.106Z,9.13
2022-12-19T17:47:06.098Z,10.35
2022-12-19T17:49:35.417Z,11.60
2022-12-19T17:52:03.263Z,11.35
2022-12-19T17:54:32.557Z,9.98
2022-12-19T17:57:00.373Z,10.02
2022-12-19T17:59:28.679Z,11.13
2022-12-19T18:01:56.928Z,9.50
2022-12-19T18:04:26.114Z,7.50
2022-12-19T18:06:54.240Z,8.82
2022-12-19T18:09:24.810Z,8.13
2022-12-19T18:11:53.227Z,8.60
2022-12-19T18:14:21.417Z,10.45
2022-12-19T18:16:51.300Z,10.18
2022-12-19T18:19:21.912Z,13.65
2022-12-19T18:21:50.345Z,8.15
2022-12-19T18:24:18.331Z,10.02
2022-12-19T18:26:46.789Z,10.93
2022-12-19T18:29:15.285Z,9.93
2022-12-19T18:31:50.084Z,8.40
2022-12-19T18:34:26.471Z,8.50
2022-12-19T18:36:54.529Z,9.48
2022-12-19T18:39:23.428Z,8.95
2022-12-19T18:41:53.234Z,10.70
2022-12-19T18:44:23.037Z,8.57
2022-12-19T18:46:51.794Z,9.48
2022-12-19T18:49:20.125Z,10.05
2022-12-19T18:51:48.332Z,9.65
2022-12-19T18:54:22.255Z,9.48
2022-12-19T18:56:52.789Z,8.13
2022-12-19T18:59:23.992Z,9.32
2022-12-19T19:01:52.352Z,10.48
2022-12-19T19:04:22.163Z,7.68
2022-12-19T19:06:52.817Z,9.07
2022-12-19T19:09:21.932Z,8.25
2022-12-19T19:12:19.389Z,7.55
2022-12-19T19:14:47.350Z,5.57
2022-12-19T19:17:27.477Z,9.82
2022-12-19T19:19:55.887Z,8.45
2022-12-19T19:22:24.981Z,10.93
2022-12-19T19:24:52.829Z,8.18
2022-12-19T19:27:20.746Z,9.52
2022-12-19T19:29:48.641Z,6.70
2022-12-19T19:32:17.094Z,7.53
2022-12-19T19:34:45.621Z,10.30
2022-12-19T19:37:15.289Z,9.35
2022-12-19T19:39:43.397Z,8.48
2022-12-19T19:42:12.134Z,11.50
2022-12-19T19:44:40.252Z,8.88
2022-12-19T19:47:08.868Z,6.60
2022-12-19T19:49:36.810Z,8.32
2022-12-19T19:52:04.931Z,9.80
2022-12-19T19:54:34.721Z,5.32
2022-12-19T19:57:02.897Z,6.93
2022-12-19T19:59:33.801Z,6.30
2022-12-19T20:02:01.797Z,8.70
2022-12-19T20:04:29.926Z,6.10
2022-12-19T20:06:57.909Z,5.70
2022-12-19T20:09:26.300Z,5.35
2022-12-19T20:11:54.095Z,6.22
2022-12-19T20:14:22.518Z,3.65
2022-12-19T20:16:50.705Z,4.95
2022-12-19T20:19:18.783Z,2.75
2022-12-19T20:21:48.516Z,5.57
2022-12-19T20:24:16.561Z,4.15
2022-12-19T20:26:44.639Z,5.15
2022-12-19T20:29:13.968Z,5.68
2022-12-19T20:31:42.692Z,5.47
2022-12-19T20:34:10.926Z,5.90
2022-12-19T20:36:39.482Z,6.78
2022-12-19T20:39:09.341Z,4.72
2022-12-19T20:41:37.438Z,5.70
2022-12-19T20:44:05.531Z,5.35
2022-12-19T20:46:33.546Z,9.50
2022-12-19T20:49:01.380Z,5.10
2022-12-19T20:51:29.247Z,5.93
2022-12-19T20:53:57.086Z,6.18
2022-12-19T20:56:26.024Z,4.50
2022-12-19T20:58:54.341Z,6.38
2022-12-19T21:01:24.453Z,6.88
2022-12-19T21:03:53.267Z,7.45
2022-12-19T21:06:25.357Z,4.75
2022-12-19T21:08:54.845Z,7.45
2022-12-19T21:11:23.851Z,6.05
2022-12-19T21:13:52.067Z,5.88
2022-12-19T21:16:29.295Z,6.57
2022-12-19T21:18:59.840Z,4.80
2022-12-19T21:21:28.188Z,5.65
2022-12-19T21:23:56.489Z,7.68
2022-12-19T21:26:26.171Z,8.18
2022-12-19T21:28:54.691Z,5.85
2022-12-19T21:31:28.283Z,7.80
2022-12-19T21:33:58.655Z,5.47
2022-12-19T21:36:28.918Z,8.85
2022-12-19T21:38:58.958Z,6.90
2022-12-19T21:41:28.031Z,7.28
2022-12-19T21:43:56.697Z,5.10
2022-12-19T21:46:27.748Z,5.03
2022-12-19T21:48:57.099Z,5.93
2022-12-19T21:51:28.123Z,7.47
2022-12-19T21:54:00.302Z,4.63
2022-12-19T21:56:39.547Z,5.82
2022-12-19T21:59:17.626Z,4.45
2022-12-19T22:01:45.898Z,4.38
2022-12-19T22:04:17.931Z,6.25
2022-12-19T22:06:46.184Z,5.28
2022-12-19T22:09:17.442Z,9.48
2022-12-19T22:11:46.141Z,5.22
2022-12-19T22:14:15.418Z,4.93
2022-12-19T22:16:44.207Z,5.82
2022-12-19T22:19:15.612Z,7.45
2022-12-19T22:21:45.971Z,7.47
2022-12-19T22:24:19.969Z,5.07
2022-12-19T22:26:51.646Z,4.68
2022-12-19T22:29:19.799Z,6.80
2022-12-19T22:31:48.279Z,5.65
2022-12-19T22:34:19.566Z,4.53
2022-12-19T22:36:48.750Z,3.83
2022-12-19T22:39:21.416Z,6.15
2022-12-19T22:41:49.687Z,4.82
2022-12-19T22:44:20.492Z,4.43
2022-12-19T22:46:49.557Z,4.50
2022-12-19T22:49:17.721Z,5.53
2022-12-19T22:51:45.646Z,6.10
2022-12-19T22:54:14.499Z,4.55
2022-12-19T22:56:42.417Z,5.43
2022-12-19T22:59:12.173Z,5.90
2022-12-19T23:01:42.154Z,3.95
2022-12-19T23:04:13.619Z,6.53
2022-12-19T23:06:41.798Z,5.20
2022-12-19T23:09:12.553Z,4.95
2022-12-19T23:11:42.674Z,4.30
2022-12-19T23:14:14.802Z,5.80
2022-12-19T23:16:43.992Z,3.90
2022-12-19T23:19:13.811Z,4.55
2022-12-19T23:21:41.674Z,5.95
2022-12-19T23:24:09.588Z,5.18
2022-12-19T23:26:38.088Z,6.68
2022-12-19T23:29:09.315Z,5.97
2022-12-19T23:31:41.041Z,4.80
2022-12-19T23:34:10.562Z,7.10
2022-12-19T23:39:26.358Z,5.57
2022-12-19T23:41:54.161Z,5.15
2022-12-19T23:44:22.219Z,4.78
2022-12-19T23:46:50.132Z,5.03
2022-12-19T23:49:17.911Z,6.00
2022-12-19T23:51:45.701Z,5.85
2022-12-19T23:54:13.499Z,5.35
2022-12-19T23:56:41.421Z,5.15
2022-12-19T23:59:09.289Z,5.88
